Elandra Spruce — V7JM5 — position and weather

sailwx.info

Track history (hours):
 
Tides and Currents Weather Stations Pressure Air Temp Water Temp Dewpoint Dewpoint Depression Visibility Wind Speed Wind Dir Waves Ship Positions

Elandra Spruce

Last reported at 2017-Sep-20 13:23 UTC. Time now 2017-Sep-23 18:33 UTC.
Position N 36°36' E 014°41'.

Length 183 m; draft 9 m.

Type: Tanker. MMSI: 538006719.

Date/timePositionNaut miles runAvg speedWind from/ knotsBaromVisibWave heightAir tempDewpointWater temp
2017-Sep-20 13:23N 36°36' E 014°41'3 7.4
2017-Sep-20 13:00N 36°36' E 014°37'4 7.3
2017-Sep-20 12:30N 36°37' E 014°33'4 7.4
2017-Sep-20 12:01N 36°38' E 014°28'4 7.3
2017-Sep-20 11:30N 36°39' E 014°24'3 7.1
2017-Sep-20 11:00N 36°40' E 014°20'3 7.0
2017-Sep-20 10:31N 36°41' E 014°15'3 6.7
2017-Sep-20 10:01N 36°41' E 014°11'3 6.8
2017-Sep-20 09:30N 36°42' E 014°07'4 7.0
2017-Sep-20 09:00N 36°43' E 014°03'4 7.4
2017-Sep-20 08:30N 36°44' E 013°59'4 7.4
2017-Sep-20 08:00N 36°45' E 013°54'4 7.2
2017-Sep-20 07:30N 36°45' E 013°50'4 7.1
2017-Sep-20 07:00N 36°46' E 013°45'4 7.1
2017-Sep-20 06:30N 36°47' E 013°41'4 7.7
2017-Sep-20 06:01N 36°48' E 013°36'509 9.8
2017-Sep-18 02:11N 37°03' E 002°60'410.1
2017-Sep-18 01:49N 37°02' E 002°55'510.1
2017-Sep-18 01:17N 37°01' E 002°48'1510.0
2017-Sep-17 23:47N 36°59' E 002°30'60 9.2
2017-Sep-17 17:13N 36°48' E 001°16'307 6.0
2017-Sep-15 14:02N 36°10' W 005°03'1 3.0
2017-Sep-15 13:41N 36°11' W 005°03'2 0.1
2017-Sep-15 01:44N 36°10' W 005°04'1 3.5
2017-Sep-15 01:24N 36°11' W 005°04'0 0.7
2017-Sep-15 01:00N 36°11' W 005°04'1 1.7
2017-Sep-15 00:30N 36°10' W 005°05'1 0.4
2017-Sep-14 22:00N 36°09' W 005°05'1 2.2
2017-Sep-14 21:31N 36°09' W 005°04'3 3.5
2017-Sep-14 20:43N 36°09' W 005°00'1 3.4
2017-Sep-14 20:24N 36°09' W 004°59'4 1.0
2017-Sep-14 16:11N 36°08' W 005°04'0 0.7
2017-Sep-14 16:00N 36°08' W 005°04'2 3.7
2017-Sep-14 15:31N 36°10' W 005°03'4 0.1
2017-Sep-13 04:55N 36°10' W 005°08'2 4.6
2017-Sep-13 04:28N 36°10' W 005°11'0 0.9
2017-Sep-13 04:00N 36°09' W 005°11'1 1.5
2017-Sep-13 03:30N 36°09' W 005°10'1 1.4
2017-Sep-13 03:00N 36°09' W 005°09'1 1.2
2017-Sep-13 02:30N 36°09' W 005°09'2 3.4
2017-Sep-13 02:00N 36°07' W 005°08'4 8.5
2017-Sep-13 01:30N 36°04' W 005°12'612.0
2017-Sep-13 01:00N 36°00' W 005°18'612.0
2017-Sep-13 00:30N 35°58' W 005°25'712.5
2017-Sep-12 23:58N 35°56' W 005°33'611.4
2017-Sep-12 23:28N 35°55' W 005°40'711.7
2017-Sep-12 22:51N 35°55' W 005°49'5911.3
2017-Sep-12 17:38N 35°41' W 006°60'310.9
2017-Sep-12 17:23N 35°40' W 007°03'411.1
2017-Sep-12 17:00N 35°38' W 007°07'25 9.6
2017-Sep-12 14:23N 35°13' W 007°08'512.9
2017-Sep-12 13:59N 35°12' W 007°02'5 0.4
2017-Sep-12 01:29N 35°10' W 007°08'1 1.1
2017-Sep-12 00:51N 35°10' W 007°09'1 1.1
2017-Sep-12 00:07N 35°10' W 007°10'0 1.0
2017-Sep-12 00:00N 35°10' W 007°10'1 1.3
2017-Sep-11 23:30N 35°10' W 007°11'3 5.9
2017-Sep-11 22:59N 35°08' W 007°14'7010.4
2017-Sep-11 16:16N 34°20' W 008°16'2 8.1
2017-Sep-11 15:58N 34°18' W 008°18'4 8.1
2017-Sep-11 15:30N 34°16' W 008°21'17 9.1
2017-Sep-11 13:39N 34°04' W 008°36'1 8.2
2017-Sep-11 13:30N 34°03' W 008°37'35 8.9
2017-Sep-11 09:32N 33°39' W 009°09'0 4.1
2017-Sep-11 09:28N 33°39' W 009°09'  
Track history (hours):
 
Tides and Currents Weather Stations Pressure Air Temp Water Temp Dewpoint Dewpoint Depression Visibility Wind Speed Wind Dir Waves Ship Positions

Elandra Spruce

Last reported at 2017-Sep-20 13:23 UTC. Time now 2017-Sep-23 18:33 UTC.
Position N 36°36' E 014°41'.

Length 183 m; draft 9 m.

Type: Tanker. MMSI: 538006719.

Date/timePositionNaut miles runAvg speedWind from/ knotsBaromVisibWave heightAir tempDewpointWater temp
2017-Sep-20 13:23N 36°36' E 014°41'3 7.4
2017-Sep-20 13:00N 36°36' E 014°37'4 7.3
2017-Sep-20 12:30N 36°37' E 014°33'4 7.4
2017-Sep-20 12:01N 36°38' E 014°28'4 7.3
2017-Sep-20 11:30N 36°39' E 014°24'3 7.1
2017-Sep-20 11:00N 36°40' E 014°20'3 7.0
2017-Sep-20 10:31N 36°41' E 014°15'3 6.7
2017-Sep-20 10:01N 36°41' E 014°11'3 6.8
2017-Sep-20 09:30N 36°42' E 014°07'4 7.0
2017-Sep-20 09:00N 36°43' E 014°03'4 7.4
2017-Sep-20 08:30N 36°44' E 013°59'4 7.4
2017-Sep-20 08:00N 36°45' E 013°54'4 7.2
2017-Sep-20 07:30N 36°45' E 013°50'4 7.1
2017-Sep-20 07:00N 36°46' E 013°45'4 7.1
2017-Sep-20 06:30N 36°47' E 013°41'4 7.7
2017-Sep-20 06:01N 36°48' E 013°36'509 9.8
2017-Sep-18 02:11N 37°03' E 002°60'410.1
2017-Sep-18 01:49N 37°02' E 002°55'510.1
2017-Sep-18 01:17N 37°01' E 002°48'1510.0
2017-Sep-17 23:47N 36°59' E 002°30'60 9.2
2017-Sep-17 17:13N 36°48' E 001°16'307 6.0
2017-Sep-15 14:02N 36°10' W 005°03'1 3.0
2017-Sep-15 13:41N 36°11' W 005°03'2 0.1
2017-Sep-15 01:44N 36°10' W 005°04'1 3.5
2017-Sep-15 01:24N 36°11' W 005°04'0 0.7
2017-Sep-15 01:00N 36°11' W 005°04'1 1.7
2017-Sep-15 00:30N 36°10' W 005°05'1 0.4
2017-Sep-14 22:00N 36°09' W 005°05'1 2.2
2017-Sep-14 21:31N 36°09' W 005°04'3 3.5
2017-Sep-14 20:43N 36°09' W 005°00'1 3.4
2017-Sep-14 20:24N 36°09' W 004°59'4 1.0
2017-Sep-14 16:11N 36°08' W 005°04'0 0.7
2017-Sep-14 16:00N 36°08' W 005°04'2 3.7
2017-Sep-14 15:31N 36°10' W 005°03'4 0.1
2017-Sep-13 04:55N 36°10' W 005°08'2 4.6
2017-Sep-13 04:28N 36°10' W 005°11'0 0.9
2017-Sep-13 04:00N 36°09' W 005°11'1 1.5
2017-Sep-13 03:30N 36°09' W 005°10'1 1.4
2017-Sep-13 03:00N 36°09' W 005°09'1 1.2
2017-Sep-13 02:30N 36°09' W 005°09'2 3.4
2017-Sep-13 02:00N 36°07' W 005°08'4 8.5
2017-Sep-13 01:30N 36°04' W 005°12'612.0
2017-Sep-13 01:00N 36°00' W 005°18'612.0
2017-Sep-13 00:30N 35°58' W 005°25'712.5
2017-Sep-12 23:58N 35°56' W 005°33'611.4
2017-Sep-12 23:28N 35°55' W 005°40'711.7
2017-Sep-12 22:51N 35°55' W 005°49'5911.3
2017-Sep-12 17:38N 35°41' W 006°60'310.9
2017-Sep-12 17:23N 35°40' W 007°03'411.1
2017-Sep-12 17:00N 35°38' W 007°07'25 9.6
2017-Sep-12 14:23N 35°13' W 007°08'512.9
2017-Sep-12 13:59N 35°12' W 007°02'5 0.4
2017-Sep-12 01:29N 35°10' W 007°08'1 1.1
2017-Sep-12 00:51N 35°10' W 007°09'1 1.1
2017-Sep-12 00:07N 35°10' W 007°10'0 1.0
2017-Sep-12 00:00N 35°10' W 007°10'1 1.3
2017-Sep-11 23:30N 35°10' W 007°11'3 5.9
2017-Sep-11 22:59N 35°08' W 007°14'7010.4
2017-Sep-11 16:16N 34°20' W 008°16'2 8.1
2017-Sep-11 15:58N 34°18' W 008°18'4 8.1
2017-Sep-11 15:30N 34°16' W 008°21'17 9.1
2017-Sep-11 13:39N 34°04' W 008°36'1 8.2
2017-Sep-11 13:30N 34°03' W 008°37'35 8.9
2017-Sep-11 09:32N 33°39' W 009°09'0 4.1
2017-Sep-11 09:28N 33°39' W 009°09'  

Dump ship's entire track history